createdAt,value
2018-03-29T00:00:24.812Z,18.40
2018-03-29T00:00:57.365Z,18.40
2018-03-29T00:01:29.898Z,18.40
2018-03-29T00:02:01.619Z,18.40
2018-03-29T00:02:33.347Z,18.40
2018-03-29T00:03:05.068Z,18.40
2018-03-29T00:03:37.577Z,18.40
2018-03-29T00:04:09.301Z,18.30
2018-03-29T00:04:41.020Z,18.40
2018-03-29T00:05:13.535Z,18.40
2018-03-29T00:05:45.275Z,18.30
2018-03-29T00:06:17.007Z,18.40
2018-03-29T00:06:48.739Z,18.40
2018-03-29T00:07:20.472Z,18.40
2018-03-29T00:07:52.205Z,18.40
2018-03-29T00:08:24.735Z,18.30
2018-03-29T00:08:56.512Z,18.30
2018-03-29T00:09:28.994Z,18.30
2018-03-29T00:10:00.722Z,18.30
2018-03-29T00:10:33.227Z,18.30
2018-03-29T00:11:05.070Z,18.30
2018-03-29T00:11:36.780Z,18.30
2018-03-29T00:12:08.507Z,18.30
2018-03-29T00:12:40.992Z,18.30
2018-03-29T00:13:12.727Z,18.30
2018-03-29T00:13:44.443Z,18.30
2018-03-29T00:14:16.164Z,18.30
2018-03-29T00:14:47.921Z,18.30
2018-03-29T00:15:19.698Z,18.30
2018-03-29T00:15:52.384Z,18.30
2018-03-29T00:16:24.219Z,18.30
2018-03-29T00:16:56.036Z,18.30
2018-03-29T00:17:28.557Z,18.30
2018-03-29T00:18:00.350Z,18.40
2018-03-29T00:18:32.120Z,18.30
2018-03-29T00:19:04.723Z,18.30
2018-03-29T00:19:36.518Z,18.30
2018-03-29T00:20:09.111Z,18.40
2018-03-29T00:20:40.956Z,18.30
2018-03-29T00:21:12.726Z,18.40
2018-03-29T00:21:44.513Z,18.40
2018-03-29T00:22:16.286Z,18.40
2018-03-29T00:22:48.077Z,18.40
2018-03-29T00:23:20.699Z,18.30
2018-03-29T00:23:52.493Z,18.30
2018-03-29T00:24:24.257Z,18.30
2018-03-29T00:24:56.100Z,18.20
2018-03-29T00:25:27.902Z,18.30
2018-03-29T00:25:59.675Z,18.20
2018-03-29T00:26:31.459Z,18.30
2018-03-29T00:27:04.017Z,18.30
2018-03-29T00:27:35.934Z,18.20
2018-03-29T00:28:07.740Z,18.20
2018-03-29T00:28:39.512Z,18.30
2018-03-29T00:29:11.301Z,18.30
2018-03-29T00:29:43.110Z,18.30
2018-03-29T00:30:14.904Z,18.30
2018-03-29T00:30:46.717Z,18.30
2018-03-29T00:31:18.537Z,18.30
2018-03-29T00:31:50.967Z,18.30
2018-03-29T00:32:23.498Z,18.30
2018-03-29T00:32:55.407Z,18.30
2018-03-29T00:33:27.366Z,18.40
2018-03-29T00:33:59.206Z,18.30
2018-03-29T00:34:30.970Z,18.30
2018-03-29T00:35:02.748Z,18.30
2018-03-29T00:35:35.323Z,18.30
2018-03-29T00:36:07.065Z,18.30
2018-03-29T00:36:38.827Z,18.30
2018-03-29T00:37:10.591Z,18.30
2018-03-29T00:37:42.340Z,18.30
2018-03-29T00:38:14.066Z,18.30
2018-03-29T00:38:45.782Z,18.30
2018-03-29T00:39:17.508Z,18.30
2018-03-29T00:39:49.995Z,18.30
2018-03-29T00:40:21.712Z,18.30
2018-03-29T00:40:54.218Z,18.30
2018-03-29T00:41:25.946Z,18.30
2018-03-29T00:41:57.684Z,18.30
2018-03-29T00:42:29.418Z,18.30
2018-03-29T00:43:01.912Z,18.30
2018-03-29T00:43:33.623Z,18.30
2018-03-29T00:44:06.123Z,18.30
2018-03-29T00:44:37.836Z,18.30
2018-03-29T00:45:09.558Z,18.30
2018-03-29T00:45:42.052Z,18.20
2018-03-29T00:46:13.800Z,18.20
2018-03-29T00:46:46.256Z,18.30
2018-03-29T00:47:17.986Z,18.30
2018-03-29T00:47:50.487Z,18.30
2018-03-29T00:48:22.242Z,18.30
2018-03-29T00:48:53.957Z,18.30
2018-03-29T00:49:25.687Z,18.30
2018-03-29T00:49:57.435Z,18.30
2018-03-29T00:50:29.316Z,18.30
2018-03-29T00:51:01.017Z,18.30
2018-03-29T00:51:32.768Z,18.30
2018-03-29T00:52:04.510Z,18.30
2018-03-29T00:52:36.240Z,18.30
2018-03-29T00:53:08.803Z,18.30
2018-03-29T00:53:40.474Z,18.30
2018-03-29T00:54:12.195Z,18.30
2018-03-29T00:54:44.688Z,18.30
2018-03-29T00:55:16.419Z,18.30
2018-03-29T00:55:48.175Z,18.20
2018-03-29T00:56:19.897Z,18.30
2018-03-29T00:56:51.634Z,18.30
2018-03-29T00:57:24.152Z,18.20
2018-03-29T00:57:55.921Z,18.20
2018-03-29T00:58:27.632Z,18.20
2018-03-29T00:58:59.357Z,18.20
2018-03-29T00:59:31.120Z,18.20
2018-03-29T01:00:02.811Z,18.20
2018-03-29T01:00:35.311Z,18.20
2018-03-29T01:01:07.037Z,18.20
2018-03-29T01:01:38.770Z,18.30
2018-03-29T01:02:10.503Z,18.20
2018-03-29T01:02:42.996Z,18.20
2018-03-29T01:03:14.718Z,18.30
2018-03-29T01:03:46.438Z,18.20
2018-03-29T01:04:18.165Z,18.20
2018-03-29T01:04:49.887Z,18.20
2018-03-29T01:05:21.612Z,18.30
2018-03-29T01:05:53.339Z,18.30
2018-03-29T01:06:25.819Z,18.30
2018-03-29T01:06:57.578Z,18.20
2018-03-29T01:07:30.041Z,18.30
2018-03-29T01:08:01.770Z,18.30
2018-03-29T01:08:33.494Z,18.30
2018-03-29T01:09:05.987Z,18.30
2018-03-29T01:09:37.750Z,18.20
2018-03-29T01:10:09.475Z,18.30
2018-03-29T01:10:41.919Z,18.30
2018-03-29T01:11:13.670Z,18.20
2018-03-29T01:11:45.413Z,18.30
2018-03-29T01:12:17.128Z,18.30
2018-03-29T01:12:49.621Z,18.30
2018-03-29T01:13:21.355Z,18.20
2018-03-29T01:13:53.072Z,18.20
2018-03-29T01:14:25.607Z,18.20
2018-03-29T01:14:57.331Z,18.20
2018-03-29T01:15:29.068Z,18.20
2018-03-29T01:16:00.775Z,18.20
2018-03-29T01:16:33.276Z,18.20
2018-03-29T01:17:04.997Z,18.20
2018-03-29T01:17:36.704Z,18.30
2018-03-29T01:18:08.461Z,18.30
2018-03-29T01:18:40.175Z,18.30
2018-03-29T01:19:11.892Z,18.30
2018-03-29T01:19:43.609Z,18.20
2018-03-29T01:20:15.336Z,18.30
2018-03-29T01:20:47.048Z,18.20
2018-03-29T01:21:18.807Z,18.30
2018-03-29T01:21:50.518Z,18.20
2018-03-29T01:22:22.228Z,18.20
2018-03-29T01:22:53.979Z,18.20
2018-03-29T01:23:26.466Z,18.20
2018-03-29T01:23:58.186Z,18.20
2018-03-29T01:24:29.928Z,18.20
2018-03-29T01:25:02.416Z,18.20
2018-03-29T01:25:34.131Z,18.10
2018-03-29T01:26:05.873Z,18.20
2018-03-29T01:26:37.597Z,18.20
2018-03-29T01:27:10.095Z,18.20
2018-03-29T01:27:41.827Z,18.10
2018-03-29T01:28:13.550Z,18.20
2018-03-29T01:28:46.052Z,18.20
2018-03-29T01:29:17.770Z,18.10
2018-03-29T01:29:49.504Z,18.20
2018-03-29T01:30:22.002Z,18.20
2018-03-29T01:30:53.730Z,18.20
2018-03-29T01:31:25.447Z,18.20
2018-03-29T01:31:57.933Z,18.20
2018-03-29T01:32:29.655Z,18.20
2018-03-29T01:33:02.162Z,18.20
2018-03-29T01:33:33.867Z,18.20
2018-03-29T01:34:06.379Z,18.20
2018-03-29T01:34:38.110Z,18.20
2018-03-29T01:35:09.835Z,18.20
2018-03-29T01:35:41.576Z,18.20
2018-03-29T01:36:13.300Z,18.20
2018-03-29T01:36:45.794Z,18.30
2018-03-29T01:37:17.547Z,18.20
2018-03-29T01:37:49.306Z,18.30
2018-03-29T01:38:21.013Z,18.30
2018-03-29T01:38:52.745Z,18.30
2018-03-29T01:39:25.267Z,18.20
2018-03-29T01:39:56.976Z,18.20
2018-03-29T01:40:28.726Z,18.20
2018-03-29T01:41:00.444Z,18.20
2018-03-29T01:41:32.940Z,18.20
2018-03-29T01:42:04.668Z,18.20
2018-03-29T01:42:36.391Z,18.20
2018-03-29T01:43:08.897Z,18.10
2018-03-29T01:43:40.619Z,18.10
2018-03-29T01:44:12.357Z,18.20
2018-03-29T01:44:44.079Z,18.20
2018-03-29T01:45:16.587Z,18.20
2018-03-29T01:45:48.311Z,18.20
2018-03-29T01:46:20.046Z,18.20
2018-03-29T01:46:51.810Z,18.20
2018-03-29T01:47:23.527Z,18.20
2018-03-29T01:47:56.021Z,18.20
2018-03-29T01:48:27.741Z,18.20
2018-03-29T01:48:59.467Z,18.20
2018-03-29T01:49:31.962Z,18.20
2018-03-29T01:50:03.679Z,18.20
2018-03-29T01:50:35.415Z,18.10
2018-03-29T01:51:07.904Z,18.20
2018-03-29T01:51:39.642Z,18.10
2018-03-29T01:52:11.394Z,18.20
2018-03-29T01:52:43.120Z,18.20
2018-03-29T01:53:15.721Z,18.20
2018-03-29T01:53:47.414Z,18.20
2018-03-29T01:54:19.935Z,18.20
2018-03-29T01:54:51.672Z,18.20
2018-03-29T01:55:23.384Z,18.20
2018-03-29T01:55:55.878Z,18.10
2018-03-29T01:56:27.618Z,18.10
2018-03-29T01:56:59.450Z,18.10
2018-03-29T01:57:31.170Z,18.20
2018-03-29T01:58:03.666Z,18.10
2018-03-29T01:58:35.392Z,18.10
2018-03-29T01:59:07.111Z,18.20
2018-03-29T01:59:39.611Z,18.20
2018-03-29T02:00:11.339Z,18.10
2018-03-29T02:00:43.861Z,18.10
2018-03-29T02:01:15.621Z,18.10
2018-03-29T02:01:47.338Z,18.10
2018-03-29T02:02:19.082Z,18.10
2018-03-29T02:02:50.855Z,18.10
2018-03-29T02:03:22.571Z,18.10
2018-03-29T02:03:54.300Z,18.20
2018-03-29T02:04:26.069Z,18.20
2018-03-29T02:04:57.830Z,18.10
2018-03-29T02:05:29.490Z,18.10
2018-03-29T02:06:01.981Z,18.20
2018-03-29T02:06:33.718Z,18.10
2018-03-29T02:07:05.432Z,18.20
2018-03-29T02:07:37.936Z,18.10
2018-03-29T02:08:09.668Z,18.10
2018-03-29T02:08:41.387Z,18.10
2018-03-29T02:09:13.886Z,18.10
2018-03-29T02:09:45.620Z,18.10
2018-03-29T02:10:17.351Z,18.10
2018-03-29T02:10:49.088Z,18.10
2018-03-29T02:11:20.859Z,18.10
2018-03-29T02:11:52.576Z,18.10
2018-03-29T02:12:24.315Z,18.10
2018-03-29T02:12:56.816Z,18.10
2018-03-29T02:13:28.580Z,18.10
2018-03-29T02:14:00.279Z,18.10
2018-03-29T02:14:32.008Z,18.20
2018-03-29T02:15:04.509Z,18.10
2018-03-29T02:15:36.341Z,18.10
2018-03-29T02:16:08.077Z,18.10
2018-03-29T02:16:39.809Z,18.10
2018-03-29T02:17:12.313Z,18.10
2018-03-29T02:17:44.092Z,18.10
2018-03-29T02:18:15.815Z,18.10
2018-03-29T02:18:47.579Z,18.10
2018-03-29T02:19:19.303Z,18.10
2018-03-29T02:19:51.039Z,18.10
2018-03-29T02:20:22.773Z,18.10
2018-03-29T02:20:54.497Z,18.10
2018-03-29T02:21:26.232Z,18.10
2018-03-29T02:21:57.957Z,18.10
2018-03-29T02:22:30.551Z,18.10
2018-03-29T02:23:02.267Z,18.10
2018-03-29T02:23:34.004Z,18.10
2018-03-29T02:24:06.621Z,18.10
2018-03-29T02:24:38.334Z,18.10
2018-03-29T02:25:10.063Z,18.10
2018-03-29T02:25:41.792Z,18.10
2018-03-29T02:26:13.514Z,18.10
2018-03-29T02:26:45.244Z,18.10
2018-03-29T02:27:16.984Z,18.10
2018-03-29T02:27:48.728Z,18.10
2018-03-29T02:28:20.575Z,18.10
2018-03-29T02:28:52.286Z,18.10
2018-03-29T02:29:24.807Z,18.10
2018-03-29T02:29:56.525Z,18.10
2018-03-29T02:30:28.256Z,18.10
2018-03-29T02:31:00.026Z,18.10
2018-03-29T02:31:31.742Z,18.10
2018-03-29T02:32:03.460Z,18.10
2018-03-29T02:32:35.982Z,18.10
2018-03-29T02:33:07.716Z,18.10
2018-03-29T02:33:39.456Z,18.10
2018-03-29T02:34:11.168Z,18.10
2018-03-29T02:34:43.661Z,18.10
2018-03-29T02:35:15.389Z,18.10
2018-03-29T02:35:47.101Z,18.00
2018-03-29T02:36:19.602Z,18.10
2018-03-29T02:36:51.328Z,18.10
2018-03-29T02:37:23.044Z,18.10
2018-03-29T02:37:54.767Z,18.10
2018-03-29T02:38:26.485Z,18.10
2018-03-29T02:38:58.211Z,18.10
2018-03-29T02:39:29.948Z,18.10
2018-03-29T02:40:01.696Z,18.10
2018-03-29T02:40:33.423Z,18.10
2018-03-29T02:41:05.915Z,18.10
2018-03-29T02:41:37.657Z,18.10
2018-03-29T02:42:09.401Z,18.10
2018-03-29T02:42:41.160Z,18.10
2018-03-29T02:43:12.895Z,18.10
2018-03-29T02:43:44.623Z,18.10
2018-03-29T02:44:16.373Z,18.10
2018-03-29T02:44:48.150Z,18.10
2018-03-29T02:45:19.849Z,18.10
2018-03-29T02:45:51.588Z,18.10
2018-03-29T02:46:24.090Z,18.10
2018-03-29T02:46:55.844Z,18.10
2018-03-29T02:47:27.567Z,18.10
2018-03-29T02:47:59.285Z,18.10
2018-03-29T02:48:31.828Z,18.10
2018-03-29T02:49:04.330Z,18.10
2018-03-29T02:49:36.076Z,18.10
2018-03-29T02:50:07.800Z,18.10
2018-03-29T02:50:39.558Z,18.10
2018-03-29T02:51:12.038Z,18.10
2018-03-29T02:51:43.747Z,18.10
2018-03-29T02:52:16.248Z,18.10
2018-03-29T02:52:47.991Z,18.00
2018-03-29T02:53:19.723Z,18.10
2018-03-29T02:53:51.441Z,18.10
2018-03-29T02:54:23.940Z,18.10
2018-03-29T02:54:55.670Z,18.00
2018-03-29T02:55:27.396Z,18.10
2018-03-29T02:55:59.882Z,18.00
2018-03-29T02:56:31.650Z,18.00
2018-03-29T02:57:03.374Z,18.00
2018-03-29T02:57:35.095Z,18.00
2018-03-29T02:58:06.829Z,18.10
2018-03-29T02:58:39.325Z,18.00
2018-03-29T02:59:11.056Z,18.00
2018-03-29T02:59:42.776Z,18.00
2018-03-29T03:00:15.276Z,18.00
2018-03-29T03:00:46.989Z,18.00
2018-03-29T03:01:18.739Z,18.00
2018-03-29T03:01:50.467Z,18.00
2018-03-29T03:02:22.992Z,18.00
2018-03-29T03:02:54.712Z,18.00
2018-03-29T03:03:26.460Z,18.00
2018-03-29T03:03:58.243Z,18.00
2018-03-29T03:04:29.942Z,18.00
2018-03-29T03:05:01.665Z,18.00
2018-03-29T03:05:33.434Z,18.00
2018-03-29T03:06:05.162Z,18.00
2018-03-29T03:06:36.883Z,18.00
2018-03-29T03:07:09.393Z,18.00
2018-03-29T03:07:41.145Z,18.00
2018-03-29T03:08:13.596Z,18.00
2018-03-29T03:08:45.333Z,18.00
2018-03-29T03:09:17.055Z,18.00
2018-03-29T03:09:48.783Z,18.00
2018-03-29T03:10:21.303Z,18.00
2018-03-29T03:10:53.044Z,18.00
2018-03-29T03:11:24.781Z,18.00
2018-03-29T03:11:56.492Z,18.00
2018-03-29T03:12:28.223Z,18.00
2018-03-29T03:13:00.739Z,18.00
2018-03-29T03:13:32.463Z,18.00
2018-03-29T03:14:04.185Z,18.00
2018-03-29T03:14:35.923Z,18.00
2018-03-29T03:15:08.433Z,18.00
2018-03-29T03:15:40.151Z,17.90
2018-03-29T03:16:11.880Z,18.00
2018-03-29T03:16:43.610Z,18.00
2018-03-29T03:17:16.093Z,18.00
2018-03-29T03:17:47.825Z,18.00
2018-03-29T03:18:19.551Z,18.00
2018-03-29T03:18:52.042Z,18.00
2018-03-29T03:19:23.774Z,18.00
2018-03-29T03:19:56.272Z,18.00
2018-03-29T03:20:28.010Z,18.00
2018-03-29T03:20:59.743Z,18.00
2018-03-29T03:21:31.487Z,18.00
2018-03-29T03:22:03.214Z,18.00
2018-03-29T03:22:35.700Z,17.90
2018-03-29T03:23:07.436Z,17.90
2018-03-29T03:23:39.203Z,17.90
2018-03-29T03:24:10.918Z,17.90
2018-03-29T03:24:42.646Z,18.00
2018-03-29T03:25:15.339Z,18.00
2018-03-29T03:25:47.800Z,18.00
2018-03-29T03:26:19.529Z,18.00
2018-03-29T03:26:51.258Z,18.00
2018-03-29T03:27:23.728Z,18.00
2018-03-29T03:27:55.531Z,18.00
2018-03-29T03:28:27.968Z,17.90
2018-03-29T03:28:59.832Z,17.90
2018-03-29T03:29:31.524Z,18.00
2018-03-29T03:30:03.261Z,18.00
2018-03-29T03:30:35.751Z,18.00
2018-03-29T03:31:07.485Z,18.00
2018-03-29T03:31:39.204Z,18.00
2018-03-29T03:32:11.693Z,18.00
2018-03-29T03:32:43.420Z,18.00
2018-03-29T03:33:15.924Z,18.00
2018-03-29T03:33:47.658Z,18.00
2018-03-29T03:34:19.403Z,18.00
2018-03-29T03:34:51.140Z,18.00
2018-03-29T03:35:22.848Z,17.90
2018-03-29T03:35:55.380Z,17.90
2018-03-29T03:36:27.153Z,17.90
2018-03-29T03:36:58.848Z,17.90
2018-03-29T03:37:30.583Z,18.00
2018-03-29T03:38:02.326Z,17.90
2018-03-29T03:38:34.049Z,17.90
2018-03-29T03:39:05.785Z,17.90
2018-03-29T03:39:38.282Z,17.90
2018-03-29T03:40:09.998Z,17.90
2018-03-29T03:40:41.726Z,17.90
2018-03-29T03:41:14.218Z,17.90
2018-03-29T03:41:45.941Z,17.90
2018-03-29T03:42:18.443Z,17.90
2018-03-29T03:42:50.165Z,17.90
2018-03-29T03:43:21.896Z,17.90
2018-03-29T03:43:54.392Z,17.90
2018-03-29T03:44:26.123Z,17.90
2018-03-29T03:44:57.843Z,17.90
2018-03-29T03:45:29.572Z,17.90
2018-03-29T03:46:01.331Z,17.90
2018-03-29T03:46:33.057Z,17.90
2018-03-29T03:47:04.775Z,18.00
2018-03-29T03:47:36.499Z,17.90
2018-03-29T03:48:08.347Z,17.90
2018-03-29T03:48:40.843Z,17.90
2018-03-29T03:49:12.560Z,17.90
2018-03-29T03:49:44.292Z,17.90
2018-03-29T03:50:16.027Z,17.90
2018-03-29T03:50:47.756Z,17.90
2018-03-29T03:51:19.487Z,17.90
2018-03-29T03:51:51.988Z,17.90
2018-03-29T03:52:23.712Z,17.90
2018-03-29T03:52:55.440Z,17.90
2018-03-29T03:53:27.940Z,17.90
2018-03-29T03:53:59.664Z,17.90
2018-03-29T03:54:31.405Z,17.90
2018-03-29T03:55:03.876Z,17.90
2018-03-29T03:55:35.611Z,17.90
2018-03-29T03:56:07.344Z,17.90
2018-03-29T03:56:39.080Z,17.90
2018-03-29T03:57:11.579Z,17.90
2018-03-29T03:57:43.300Z,17.90
2018-03-29T03:58:15.073Z,17.90
2018-03-29T03:58:46.758Z,18.00
2018-03-29T03:59:18.506Z,18.00
2018-03-29T03:59:50.216Z,18.00
2018-03-29T04:00:21.940Z,18.00
2018-03-29T04:00:53.698Z,18.00
2018-03-29T04:01:25.423Z,18.00
2018-03-29T04:01:57.180Z,18.00
2018-03-29T04:02:28.898Z,18.00
2018-03-29T04:03:01.368Z,18.00
2018-03-29T04:03:33.101Z,18.00
2018-03-29T04:04:04.832Z,18.00
2018-03-29T04:04:37.337Z,18.00
2018-03-29T04:05:09.054Z,18.00
2018-03-29T04:05:41.575Z,18.00
2018-03-29T04:06:13.314Z,18.00
2018-03-29T04:06:45.051Z,17.90
2018-03-29T04:07:16.777Z,17.90
2018-03-29T04:07:48.538Z,17.90
2018-03-29T04:08:20.249Z,17.90
2018-03-29T04:08:51.967Z,17.90
2018-03-29T04:09:24.489Z,17.90
2018-03-29T04:09:56.195Z,17.90
2018-03-29T04:10:28.018Z,17.90
2018-03-29T04:11:00.625Z,17.90
2018-03-29T04:11:32.348Z,17.90
2018-03-29T04:12:04.089Z,17.90
2018-03-29T04:12:35.823Z,17.90
2018-03-29T04:13:08.296Z,17.90
2018-03-29T04:13:40.061Z,17.90
2018-03-29T04:14:12.578Z,17.90
2018-03-29T04:14:44.253Z,17.90
2018-03-29T04:15:15.979Z,17.90
2018-03-29T04:15:48.479Z,17.90
2018-03-29T04:16:20.215Z,17.90
2018-03-29T04:16:51.939Z,17.90
2018-03-29T04:17:23.671Z,17.90
2018-03-29T04:17:56.155Z,17.90
2018-03-29T04:18:27.886Z,17.90
2018-03-29T04:18:59.619Z,17.90
2018-03-29T04:19:32.127Z,17.90
2018-03-29T04:20:03.838Z,17.90
2018-03-29T04:20:35.551Z,17.90
2018-03-29T04:21:07.287Z,17.90
2018-03-29T04:21:39.046Z,17.90
2018-03-29T04:22:10.755Z,17.90
2018-03-29T04:22:42.482Z,17.80
2018-03-29T04:23:14.236Z,17.80
2018-03-29T04:23:45.953Z,17.90
2018-03-29T04:24:17.694Z,17.90
2018-03-29T04:24:49.451Z,17.90
2018-03-29T04:25:21.147Z,17.90
2018-03-29T04:25:52.874Z,17.90
2018-03-29T04:26:24.605Z,17.90
2018-03-29T04:26:56.341Z,17.90
2018-03-29T04:27:28.086Z,17.90
2018-03-29T04:27:59.821Z,17.90
2018-03-29T04:28:31.542Z,17.90
2018-03-29T04:29:03.280Z,17.90
2018-03-29T04:29:35.769Z,17.90
2018-03-29T04:30:07.546Z,17.90
2018-03-29T04:30:39.268Z,17.90
2018-03-29T04:31:11.013Z,17.90
2018-03-29T04:31:42.756Z,17.90
2018-03-29T04:32:14.482Z,17.90
2018-03-29T04:32:46.214Z,17.90
2018-03-29T04:33:17.938Z,17.90
2018-03-29T04:33:50.428Z,17.90
2018-03-29T04:34:22.156Z,17.90
2018-03-29T04:34:53.903Z,17.90
2018-03-29T04:35:25.636Z,17.90
2018-03-29T04:35:58.126Z,17.90
2018-03-29T04:36:29.859Z,17.90
2018-03-29T04:37:01.578Z,17.90
2018-03-29T04:37:34.089Z,18.00
2018-03-29T04:38:05.819Z,18.00
2018-03-29T04:38:37.587Z,17.90
2018-03-29T04:39:09.271Z,18.00
2018-03-29T04:39:41.776Z,18.00
2018-03-29T04:40:13.498Z,18.00
2018-03-29T04:40:45.250Z,18.00
2018-03-29T04:41:16.982Z,18.00
2018-03-29T04:41:48.739Z,18.00
2018-03-29T04:42:21.220Z,18.00
2018-03-29T04:42:52.936Z,18.00
2018-03-29T04:43:25.425Z,18.00
2018-03-29T04:43:57.144Z,18.00
2018-03-29T04:44:28.877Z,18.00
2018-03-29T04:45:01.413Z,17.90
2018-03-29T04:45:33.126Z,17.90
2018-03-29T04:46:04.967Z,17.90
2018-03-29T04:46:36.686Z,17.90
2018-03-29T04:47:08.419Z,17.90
2018-03-29T04:47:40.151Z,17.90
2018-03-29T04:48:11.862Z,17.90
2018-03-29T04:48:43.589Z,17.90
2018-03-29T04:49:15.317Z,17.90
2018-03-29T04:49:47.029Z,17.90
2018-03-29T04:50:19.545Z,17.80
2018-03-29T04:50:51.244Z,17.80
2018-03-29T04:51:23.096Z,17.90
2018-03-29T04:51:55.607Z,17.90
2018-03-29T04:52:27.319Z,17.90
2018-03-29T04:52:59.048Z,17.80
2018-03-29T04:53:31.541Z,17.80
2018-03-29T04:54:03.262Z,17.80
2018-03-29T04:54:34.988Z,17.80
2018-03-29T04:55:07.476Z,17.90
2018-03-29T04:55:39.203Z,17.90
2018-03-29T04:56:10.977Z,17.90
2018-03-29T04:56:43.461Z,17.90
2018-03-29T04:57:15.153Z,17.90
2018-03-29T04:57:47.662Z,17.90
2018-03-29T04:58:19.394Z,17.90
2018-03-29T04:58:51.113Z,17.90
2018-03-29T04:59:22.870Z,17.90
2018-03-29T04:59:54.591Z,17.90
2018-03-29T05:00:26.311Z,17.90
2018-03-29T05:00:58.034Z,17.80
2018-03-29T05:01:29.773Z,17.80
2018-03-29T05:02:01.502Z,17.80
2018-03-29T05:02:33.229Z,17.90
2018-03-29T05:03:04.961Z,17.90
2018-03-29T05:03:36.705Z,17.80
2018-03-29T05:04:08.441Z,17.80
2018-03-29T05:04:40.928Z,17.80
2018-03-29T05:05:12.652Z,17.80
2018-03-29T05:05:44.395Z,17.80
2018-03-29T05:06:16.128Z,17.80
2018-03-29T05:06:48.640Z,17.80
2018-03-29T05:07:20.344Z,17.80
2018-03-29T05:07:52.839Z,17.80
2018-03-29T05:08:24.585Z,17.80
2018-03-29T05:08:56.293Z,17.80
2018-03-29T05:09:28.792Z,17.80
2018-03-29T05:10:00.514Z,17.80
2018-03-29T05:10:32.240Z,17.80
2018-03-29T05:11:04.739Z,17.80
2018-03-29T05:11:36.488Z,17.80
2018-03-29T05:12:08.209Z,17.80
2018-03-29T05:12:39.927Z,17.70
2018-03-29T05:13:12.425Z,17.80
2018-03-29T05:13:44.151Z,17.80
2018-03-29T05:14:15.891Z,17.80
2018-03-29T05:14:47.664Z,17.80
2018-03-29T05:15:19.383Z,17.80
2018-03-29T05:15:51.106Z,17.80
2018-03-29T05:16:22.855Z,17.80
2018-03-29T05:16:54.559Z,17.80
2018-03-29T05:17:26.284Z,17.80
2018-03-29T05:17:58.039Z,17.80
2018-03-29T05:18:29.763Z,17.80
2018-03-29T05:19:01.494Z,17.80
2018-03-29T05:19:33.235Z,17.80
2018-03-29T05:20:04.955Z,17.80
2018-03-29T05:20:37.446Z,17.80
2018-03-29T05:21:09.175Z,17.80
2018-03-29T05:21:41.672Z,17.80
2018-03-29T05:22:13.394Z,17.80
2018-03-29T05:22:45.157Z,17.90
2018-03-29T05:23:16.914Z,17.80
2018-03-29T05:23:48.635Z,17.80
2018-03-29T05:24:20.360Z,17.70
2018-03-29T05:24:52.851Z,17.70
2018-03-29T05:25:24.575Z,17.70
2018-03-29T05:25:56.295Z,17.70
2018-03-29T05:26:28.840Z,17.70
2018-03-29T05:27:00.556Z,17.70
2018-03-29T05:27:32.277Z,17.80
2018-03-29T05:28:03.995Z,17.80
2018-03-29T05:28:36.488Z,17.80
2018-03-29T05:29:08.221Z,17.70
2018-03-29T05:29:39.949Z,17.80
2018-03-29T05:30:12.435Z,17.80
2018-03-29T05:30:44.155Z,17.80
2018-03-29T05:31:16.654Z,17.80
2018-03-29T05:31:48.421Z,17.80
2018-03-29T05:32:20.128Z,17.80
2018-03-29T05:32:51.844Z,17.80
2018-03-29T05:33:24.346Z,17.80
2018-03-29T05:33:56.064Z,17.80
2018-03-29T05:34:27.801Z,17.80
2018-03-29T05:35:00.288Z,17.70
2018-03-29T05:35:32.013Z,17.70
2018-03-29T05:36:03.865Z,17.80
2018-03-29T05:36:36.351Z,17.70
2018-03-29T05:37:08.078Z,17.70
2018-03-29T05:37:40.588Z,17.70
2018-03-29T05:38:12.330Z,17.80
2018-03-29T05:38:44.073Z,17.80
2018-03-29T05:39:15.804Z,17.80
2018-03-29T05:39:47.538Z,17.80
2018-03-29T05:40:19.286Z,17.80
2018-03-29T05:40:51.042Z,17.80
2018-03-29T05:41:22.743Z,17.80
2018-03-29T05:41:54.482Z,17.70
2018-03-29T05:42:26.220Z,17.80
2018-03-29T05:42:57.949Z,17.80
2018-03-29T05:43:29.682Z,17.80
2018-03-29T05:44:01.391Z,17.70
2018-03-29T05:44:33.151Z,17.70
2018-03-29T05:45:04.895Z,17.70
2018-03-29T05:45:36.622Z,17.70
2018-03-29T05:46:08.343Z,17.80
2018-03-29T05:46:40.076Z,17.70
2018-03-29T05:47:11.797Z,17.80
2018-03-29T05:47:43.523Z,17.80
2018-03-29T05:48:15.260Z,17.80
2018-03-29T05:48:47.002Z,17.80
2018-03-29T05:49:18.727Z,17.80
2018-03-29T05:49:50.466Z,17.80
2018-03-29T05:50:22.191Z,17.80
2018-03-29T05:50:53.930Z,17.80
2018-03-29T05:51:26.497Z,17.80
2018-03-29T05:51:58.260Z,17.80
2018-03-29T05:52:29.981Z,17.80
2018-03-29T05:53:02.481Z,17.80
2018-03-29T05:53:34.205Z,17.80
2018-03-29T05:54:05.944Z,17.80
2018-03-29T05:54:37.773Z,17.70
2018-03-29T05:55:10.257Z,17.80
2018-03-29T05:55:42.003Z,17.80
2018-03-29T05:56:13.746Z,17.80
2018-03-29T05:56:45.504Z,17.80
2018-03-29T05:57:17.223Z,17.80
2018-03-29T05:57:48.946Z,17.80
2018-03-29T05:58:20.714Z,17.80
2018-03-29T05:58:52.447Z,17.80
2018-03-29T05:59:24.252Z,17.80
2018-03-29T05:59:55.943Z,17.80
2018-03-29T06:00:27.676Z,17.80
2018-03-29T06:01:00.183Z,17.80
2018-03-29T06:01:31.953Z,17.80
2018-03-29T06:02:03.648Z,17.90
2018-03-29T06:02:35.377Z,17.80
2018-03-29T06:03:07.886Z,17.80
2018-03-29T06:03:39.588Z,17.80
2018-03-29T06:04:11.321Z,17.80
2018-03-29T06:04:43.804Z,17.80
2018-03-29T06:05:15.528Z,17.80
2018-03-29T06:05:48.012Z,17.80
2018-03-29T06:06:19.736Z,17.80
2018-03-29T06:06:52.243Z,17.80
2018-03-29T06:07:23.956Z,17.80
2018-03-29T06:07:55.688Z,17.80
2018-03-29T06:08:27.439Z,17.70
2018-03-29T06:08:59.215Z,17.80
2018-03-29T06:09:30.927Z,17.80
2018-03-29T06:10:02.656Z,17.80
2018-03-29T06:10:35.174Z,17.70
2018-03-29T06:11:06.903Z,17.70
2018-03-29T06:11:38.624Z,17.80
2018-03-29T06:12:10.390Z,17.80
2018-03-29T06:12:42.117Z,17.80
2018-03-29T06:13:13.842Z,17.80
2018-03-29T06:13:46.316Z,17.80
2018-03-29T06:14:18.039Z,17.80
2018-03-29T06:14:50.544Z,17.90
2018-03-29T06:15:22.261Z,17.80
2018-03-29T06:15:53.972Z,17.90
2018-03-29T06:16:25.699Z,17.90
2018-03-29T06:16:57.447Z,17.90
2018-03-29T06:17:29.159Z,17.90
2018-03-29T06:18:00.884Z,17.90
2018-03-29T06:18:33.384Z,17.90
2018-03-29T06:19:05.123Z,17.90
2018-03-29T06:19:36.859Z,17.90
2018-03-29T06:20:08.567Z,17.90
2018-03-29T06:20:41.077Z,17.90
2018-03-29T06:21:12.835Z,17.90
2018-03-29T06:21:44.561Z,17.90
2018-03-29T06:22:16.291Z,17.90
2018-03-29T06:22:48.036Z,17.90
2018-03-29T06:23:19.759Z,17.90
2018-03-29T06:23:52.250Z,17.90
2018-03-29T06:24:23.972Z,17.90
2018-03-29T06:24:55.709Z,17.90
2018-03-29T06:25:27.454Z,17.90
2018-03-29T06:26:00.000Z,17.90
2018-03-29T06:26:32.567Z,17.80
2018-03-29T06:27:05.068Z,17.90
2018-03-29T06:27:36.783Z,17.80
2018-03-29T06:28:08.608Z,17.90
2018-03-29T06:28:40.333Z,17.90
2018-03-29T06:29:12.063Z,17.90
2018-03-29T06:29:43.828Z,17.90
2018-03-29T06:30:15.642Z,17.90
2018-03-29T06:30:47.342Z,17.80
2018-03-29T06:31:19.824Z,17.80
2018-03-29T06:31:51.547Z,17.80
2018-03-29T06:32:24.040Z,17.80
2018-03-29T06:32:55.772Z,17.80
2018-03-29T06:33:27.485Z,17.80
2018-03-29T06:33:59.991Z,17.80
2018-03-29T06:34:31.711Z,17.90
2018-03-29T06:35:03.428Z,17.80
2018-03-29T06:35:35.142Z,17.80
2018-03-29T06:36:06.880Z,17.80
2018-03-29T06:36:38.592Z,17.80
2018-03-29T06:37:10.330Z,17.80
2018-03-29T06:37:42.062Z,17.70
2018-03-29T06:38:14.582Z,17.80
2018-03-29T06:38:46.308Z,17.80
2018-03-29T06:39:18.024Z,17.80
2018-03-29T06:39:50.516Z,17.80
2018-03-29T06:40:22.260Z,17.80
2018-03-29T06:40:53.976Z,17.80
2018-03-29T06:41:25.719Z,17.80
2018-03-29T06:41:58.218Z,17.80
2018-03-29T06:42:29.932Z,17.80
2018-03-29T06:43:01.682Z,17.80
2018-03-29T06:43:33.403Z,17.80
2018-03-29T06:44:05.889Z,17.80
2018-03-29T06:44:37.616Z,17.80
2018-03-29T06:45:10.113Z,17.80
2018-03-29T06:45:41.846Z,17.80
2018-03-29T06:46:13.559Z,17.80
2018-03-29T06:46:46.057Z,17.80
2018-03-29T06:47:17.775Z,17.80
2018-03-29T06:47:49.508Z,17.80
2018-03-29T06:48:22.019Z,17.80
2018-03-29T06:48:53.729Z,17.80
2018-03-29T06:49:25.444Z,17.80
2018-03-29T06:49:57.170Z,17.80
2018-03-29T06:50:28.911Z,17.80
2018-03-29T06:51:00.640Z,17.80